Time;durP1;ratioP1;P1;durP2;ratioP2;P2;SDS_P1;SDS_P2;PMS_P1;PMS_P2;Temp;Humidity;BMP_temperature;BMP_pressure;BME280_temperature;BME280_humidity;BME280_pressure;Samples;Min_cycle;Max_cycle;Signal;HPM_P1;HPM_P2
2023/07/04 00:00:38;;;;;;;0.20;0.20;;;;;;;;;;5075944;28;20032;-74
2023/07/04 00:03:03;;;;;;;0.20;0.20;;;;;;;;;;5094314;28;20028;-73
2023/07/04 00:05:29;;;;;;;0.22;0.22;;;;;;;;;;5093732;28;20028;-73
2023/07/04 00:07:54;;;;;;;0.20;0.20;;;;;;;;;;5075774;28;20038;-73
2023/07/04 00:10:20;;;;;;;0.20;0.20;;;;;;;;;;5093627;28;20089;-73
2023/07/04 00:12:45;;;;;;;0.20;0.20;;;;;;;;;;5092487;28;20437;-73
2023/07/04 00:15:11;;;;;;;0.20;0.20;;;;;;;;;;5093586;28;20020;-73
2023/07/04 00:17:36;;;;;;;0.20;0.20;;;;;;;;;;5093463;28;20503;-73
2023/07/04 00:20:04;;;;;;;1.25;0.50;;;;;;;;;;5093451;28;20040;-73
2023/07/04 00:22:29;;;;;;;0.20;0.20;;;;;;;;;;5088789;28;20029;-73
2023/07/04 00:24:57;;;;;;;0.77;0.68;;;;;;;;;;5073998;28;20063;-73
2023/07/04 00:27:23;;;;;;;0.20;0.20;;;;;;;;;;5055399;28;20036;-73
2023/07/04 00:29:50;;;;;;;0.20;0.20;;;;;;;;;;5052963;28;20032;-73
2023/07/04 00:32:15;;;;;;;0.30;0.30;;;;;;;;;;5071349;28;20482;-73
2023/07/04 00:34:44;;;;;;;0.20;0.20;;;;;;;;;;5071617;28;20064;-74
2023/07/04 00:37:09;;;;;;;0.20;0.20;;;;;;;;;;5071441;28;20032;-73
2023/07/04 00:39:37;;;;;;;0.38;0.38;;;;;;;;;;5071749;28;20086;-73
2023/07/04 00:42:07;;;;;;;0.20;0.20;;;;;;;;;;5072834;28;20501;-74
2023/07/04 00:44:37;;;;;;;0.20;0.20;;;;;;;;;;5073091;28;20108;-73
2023/07/04 00:47:10;;;;;;;0.20;0.20;;;;;;;;;;5086518;28;20387;-73
2023/07/04 00:49:43;;;;;;;0.30;0.30;;;;;;;;;;5074314;28;20518;-74
2023/07/04 00:52:14;;;;;;;1.45;1.45;;;;;;;;;;5093027;28;20024;-73
2023/07/04 00:54:41;;;;;;;0.20;0.20;;;;;;;;;;5074755;28;20047;-73
2023/07/04 00:57:07;;;;;;;0.20;0.20;;;;;;;;;;5075030;28;20020;-73
2023/07/04 00:59:38;;;;;;;0.65;0.65;;;;;;;;;;5093084;28;20043;-73
2023/07/04 01:02:04;;;;;;;0.20;0.20;;;;;;;;;;5074901;28;20039;-73
2023/07/04 01:04:30;;;;;;;0.20;0.20;;;;;;;;;;5074867;28;20491;-74
2023/07/04 01:06:59;;;;;;;0.30;0.30;;;;;;;;;;5091550;28;20048;-73
2023/07/04 01:09:26;;;;;;;0.30;0.30;;;;;;;;;;5091808;28;20471;-74
2023/07/04 01:11:52;;;;;;;0.40;0.40;;;;;;;;;;5074454;28;20028;-73
2023/07/04 01:14:22;;;;;;;0.25;0.25;;;;;;;;;;5074527;28;20032;-72
2023/07/04 01:16:47;;;;;;;0.20;0.20;;;;;;;;;;5074937;28;20360;-75
2023/07/04 01:19:16;;;;;;;0.28;0.28;;;;;;;;;;5074298;28;20066;-74
2023/07/04 01:21:44;;;;;;;0.30;0.30;;;;;;;;;;5074589;28;20036;-75
2023/07/04 01:24:12;;;;;;;0.30;0.30;;;;;;;;;;5092515;28;20830;-74
2023/07/04 01:26:39;;;;;;;0.25;0.25;;;;;;;;;;5092629;28;20463;-73
2023/07/04 01:29:07;;;;;;;0.20;0.20;;;;;;;;;;5091427;28;20031;-74
2023/07/04 01:31:35;;;;;;;0.20;0.20;;;;;;;;;;5092360;28;20028;-74
2023/07/04 01:34:02;;;;;;;0.47;0.47;;;;;;;;;;5092397;28;20534;-74
2023/07/04 01:36:28;;;;;;;0.50;0.50;;;;;;;;;;5090787;28;20032;-75
2023/07/04 01:38:54;;;;;;;0.20;0.20;;;;;;;;;;5092348;28;20039;-75
2023/07/04 01:41:19;;;;;;;0.30;0.30;;;;;;;;;;5075906;28;20383;-76
2023/07/04 01:43:48;;;;;;;0.30;0.30;;;;;;;;;;5096049;28;20038;-74
2023/07/04 01:46:13;;;;;;;0.20;0.20;;;;;;;;;;5096013;28;20028;-74
2023/07/04 01:48:39;;;;;;;0.20;0.20;;;;;;;;;;5095949;28;20379;-75
2023/07/04 01:51:05;;;;;;;0.20;0.20;;;;;;;;;;5077638;28;20032;-74
2023/07/04 01:53:31;;;;;;;0.20;0.20;;;;;;;;;;5095725;28;20431;-76
2023/07/04 01:55:56;;;;;;;0.20;0.20;;;;;;;;;;5096100;28;20051;-75
2023/07/04 01:58:22;;;;;;;0.20;0.20;;;;;;;;;;5077601;28;20467;-73
2023/07/04 02:00:47;;;;;;;0.40;0.40;;;;;;;;;;5077728;28;20028;-73
2023/07/04 02:03:12;;;;;;;0.35;0.35;;;;;;;;;;5093510;28;20471;-73
2023/07/04 02:05:38;;;;;;;0.25;0.25;;;;;;;;;;5095464;28;20042;-74
2023/07/04 02:08:04;;;;;;;0.20;0.20;;;;;;;;;;5077344;28;20036;-75
2023/07/04 02:10:30;;;;;;;0.20;0.20;;;;;;;;;;5094984;28;20492;-74
2023/07/04 02:12:55;;;;;;;0.20;0.20;;;;;;;;;;5076912;28;20024;-75
2023/07/04 02:15:22;;;;;;;0.20;0.20;;;;;;;;;;5077413;28;20557;-74
2023/07/04 02:17:47;;;;;;;0.40;0.40;;;;;;;;;;5095383;28;20026;-74
2023/07/04 02:20:13;;;;;;;0.68;0.68;;;;;;;;;;5095371;28;20107;-74
2023/07/04 02:22:40;;;;;;;0.30;0.30;;;;;;;;;;5076675;28;20031;-73
2023/07/04 02:25:06;;;;;;;0.30;0.30;;;;;;;;;;5076714;28;20036;-74
2023/07/04 02:27:31;;;;;;;0.20;0.20;;;;;;;;;;5057200;28;20636;-74
2023/07/04 02:29:56;;;;;;;0.22;0.22;;;;;;;;;;5074882;28;20085;-74
2023/07/04 02:32:22;;;;;;;0.77;0.77;;;;;;;;;;5075062;28;20038;-75
2023/07/04 02:34:48;;;;;;;0.20;0.20;;;;;;;;;;5093238;28;20047;-74
2023/07/04 02:37:15;;;;;;;0.20;0.20;;;;;;;;;;5075115;28;20439;-74
2023/07/04 02:39:41;;;;;;;0.20;0.20;;;;;;;;;;5093446;28;20044;-74
2023/07/04 02:42:07;;;;;;;0.20;0.20;;;;;;;;;;5093204;28;20055;-74
2023/07/04 02:44:34;;;;;;;0.60;0.60;;;;;;;;;;5059892;28;20471;-73
2023/07/04 02:47:02;;;;;;;0.13;0.13;;;;;;;;;;5076990;28;20039;-72
2023/07/04 02:49:28;;;;;;;0.85;0.85;;;;;;;;;;5077031;28;20040;-72
2023/07/04 02:51:54;;;;;;;0.25;0.25;;;;;;;;;;5075087;28;20032;-71
2023/07/04 02:54:20;;;;;;;0.20;0.20;;;;;;;;;;5076112;28;20119;-73
2023/07/04 02:56:46;;;;;;;0.20;0.20;;;;;;;;;;5075258;28;20039;-73
2023/07/04 02:59:11;;;;;;;0.63;0.63;;;;;;;;;;5094348;28;20036;-73
2023/07/04 03:01:37;;;;;;;0.20;0.20;;;;;;;;;;5075594;28;20036;-73
2023/07/04 03:04:03;;;;;;;0.20;0.20;;;;;;;;;;5089751;28;20032;-75
2023/07/04 03:06:29;;;;;;;0.20;0.20;;;;;;;;;;5072411;28;20102;-75
2023/07/04 03:08:56;;;;;;;0.20;0.20;;;;;;;;;;5090646;28;20380;-75
2023/07/04 03:11:23;;;;;;;0.28;0.28;;;;;;;;;;5055752;28;20035;-75
2023/07/04 03:13:50;;;;;;;0.10;0.10;;;;;;;;;;5057630;28;20039;-73
2023/07/04 03:16:15;;;;;;;0.10;0.10;;;;;;;;;;5051569;28;20060;-73
2023/07/04 03:18:43;;;;;;;0.20;0.20;;;;;;;;;;5051874;28;20036;-73
2023/07/04 03:21:09;;;;;;;0.20;0.20;;;;;;;;;;5035611;28;20085;-73
2023/07/04 03:23:34;;;;;;;0.38;0.38;;;;;;;;;;5052233;28;20491;-74
2023/07/04 03:26:00;;;;;;;0.20;0.20;;;;;;;;;;5052111;28;20041;-72
2023/07/04 03:28:27;;;;;;;0.20;0.20;;;;;;;;;;5051636;28;20024;-73
2023/07/04 03:30:53;;;;;;;0.20;0.20;;;;;;;;;;5057104;28;20051;-74
2023/07/04 03:33:19;;;;;;;0.30;0.30;;;;;;;;;;5071830;28;20024;-73
2023/07/04 03:35:44;;;;;;;0.20;0.20;;;;;;;;;;5071738;28;20039;-73
2023/07/04 03:38:10;;;;;;;0.20;0.20;;;;;;;;;;5090011;28;20031;-74
2023/07/04 03:40:35;;;;;;;0.10;0.10;;;;;;;;;;5071564;28;20115;-73
2023/07/04 03:43:01;;;;;;;0.20;0.20;;;;;;;;;;5070401;28;20113;-74
2023/07/04 03:45:27;;;;;;;0.38;0.38;;;;;;;;;;5088009;28;20063;-72
2023/07/04 03:47:52;;;;;;;0.20;0.20;;;;;;;;;;5069421;28;20397;-72
2023/07/04 03:50:18;;;;;;;1.17;0.95;;;;;;;;;;5069444;28;20115;-72
2023/07/04 03:52:43;;;;;;;0.20;0.20;;;;;;;;;;5089807;28;20471;-73
2023/07/04 03:55:09;;;;;;;4.28;1.30;;;;;;;;;;5071523;28;20044;-73
2023/07/04 03:57:35;;;;;;;3.38;3.17;;;;;;;;;;5071684;28;20040;-73
2023/07/04 04:00:01;;;;;;;0.75;0.30;;;;;;;;;;5088474;28;20059;-73
2023/07/04 04:02:26;;;;;;;5.70;2.50;;;;;;;;;;5087601;28;20028;-72
2023/07/04 04:04:51;;;;;;;0.20;0.20;;;;;;;;;;5087511;28;20494;-73
2023/07/04 04:07:17;;;;;;;0.20;0.20;;;;;;;;;;5089663;28;20039;-74
2023/07/04 04:09:42;;;;;;;0.20;0.20;;;;;;;;;;5087283;28;20040;-74
2023/07/04 04:12:08;;;;;;;0.73;0.73;;;;;;;;;;5088548;28;20414;-74
2023/07/04 04:14:35;;;;;;;0.20;0.20;;;;;;;;;;5088101;28;20458;-75
2023/07/04 04:17:00;;;;;;;0.22;0.22;;;;;;;;;;5088185;28;20103;-76
2023/07/04 04:19:26;;;;;;;0.20;0.20;;;;;;;;;;5089752;28;20123;-75
2023/07/04 04:21:52;;;;;;;0.20;0.20;;;;;;;;;;5089274;28;20123;-75
2023/07/04 04:24:18;;;;;;;0.28;0.28;;;;;;;;;;5070901;28;20088;-74
2023/07/04 04:26:46;;;;;;;0.20;0.20;;;;;;;;;;5089851;28;20110;-77
2023/07/04 04:29:13;;;;;;;0.30;0.30;;;;;;;;;;5090189;28;20028;-74
2023/07/04 04:31:39;;;;;;;0.20;0.20;;;;;;;;;;5089466;28;20035;-75
2023/07/04 04:34:05;;;;;;;0.20;0.20;;;;;;;;;;5089551;28;20028;-73
2023/07/04 04:36:31;;;;;;;0.20;0.20;;;;;;;;;;5070449;28;20051;-73
2023/07/04 04:38:59;;;;;;;0.20;0.20;;;;;;;;;;5087451;28;20475;-74
2023/07/04 04:41:25;;;;;;;1.27;1.27;;;;;;;;;;5038315;28;20034;-72
2023/07/04 04:43:50;;;;;;;0.28;0.28;;;;;;;;;;5069299;28;20111;-75
2023/07/04 04:46:16;;;;;;;0.20;0.20;;;;;;;;;;5075780;28;20027;-75
2023/07/04 04:48:42;;;;;;;0.20;0.20;;;;;;;;;;5087540;28;20043;-73
2023/07/04 04:51:09;;;;;;;0.20;0.20;;;;;;;;;;5087754;28;20040;-73
2023/07/04 04:53:35;;;;;;;0.20;0.20;;;;;;;;;;5087959;28;20085;-72
2023/07/04 04:56:01;;;;;;;0.40;0.40;;;;;;;;;;5086820;28;20027;-73
2023/07/04 04:58:27;;;;;;;0.20;0.20;;;;;;;;;;5087613;28;20510;-72
2023/07/04 05:00:52;;;;;;;0.20;0.20;;;;;;;;;;5089310;28;20032;-76
2023/07/04 05:03:18;;;;;;;0.77;0.77;;;;;;;;;;5085571;28;20081;-76
2023/07/04 05:05:43;;;;;;;0.20;0.20;;;;;;;;;;5088900;28;20024;-73
2023/07/04 05:08:08;;;;;;;0.20;0.20;;;;;;;;;;5077507;28;20063;-73
2023/07/04 05:10:34;;;;;;;0.45;0.45;;;;;;;;;;5082647;28;20119;-74
2023/07/04 05:12:59;;;;;;;0.20;0.20;;;;;;;;;;5076239;28;20040;-74
2023/07/04 05:15:25;;;;;;;0.20;0.20;;;;;;;;;;5085509;28;20024;-73
2023/07/04 05:17:50;;;;;;;0.20;0.20;;;;;;;;;;5085247;28;20020;-74
2023/07/04 05:20:22;;;;;;;0.20;0.20;;;;;;;;;;5080303;28;20032;-75
2023/07/04 05:22:48;;;;;;;0.20;0.20;;;;;;;;;;5080892;28;20389;-75
2023/07/04 05:25:14;;;;;;;0.20;0.20;;;;;;;;;;5080898;28;20043;-74
2023/07/04 05:27:39;;;;;;;0.20;0.20;;;;;;;;;;5083148;28;20036;-75
2023/07/04 05:30:06;;;;;;;0.22;0.22;;;;;;;;;;5080537;28;20032;-74
2023/07/04 05:32:31;;;;;;;0.20;0.20;;;;;;;;;;5079025;28;20036;-74
2023/07/04 05:34:56;;;;;;;0.20;0.20;;;;;;;;;;5080197;28;20051;-75
2023/07/04 05:37:22;;;;;;;0.28;0.28;;;;;;;;;;5084029;28;20097;-74
2023/07/04 05:39:47;;;;;;;0.20;0.20;;;;;;;;;;5084014;28;20040;-75
2023/07/04 05:42:13;;;;;;;0.20;0.20;;;;;;;;;;5079424;28;20036;-74
2023/07/04 05:44:38;;;;;;;0.20;0.20;;;;;;;;;;5058650;28;20020;-75
2023/07/04 05:47:04;;;;;;;0.20;0.20;;;;;;;;;;5085341;28;20028;-74
2023/07/04 05:49:29;;;;;;;0.20;0.20;;;;;;;;;;5076728;28;20029;-76
2023/07/04 05:51:56;;;;;;;0.20;0.20;;;;;;;;;;5068308;28;20063;-78
2023/07/04 05:54:21;;;;;;;0.20;0.20;;;;;;;;;;5069050;28;20483;-74
2023/07/04 05:56:50;;;;;;;0.20;0.20;;;;;;;;;;5069739;28;20123;-74
2023/07/04 05:59:16;;;;;;;;;;;;;;;;;;5067906;28;20036;-74
2023/07/04 06:01:42;;;;;;;0.20;0.20;;;;;;;;;;5079655;28;19918;-75
2023/07/04 06:04:09;;;;;;;0.22;0.22;;;;;;;;;;5076459;28;20036;-75
2023/07/04 06:06:36;;;;;;;0.20;0.20;;;;;;;;;;5084563;28;20547;-74
2023/07/04 06:09:04;;;;;;;0.20;0.20;;;;;;;;;;5069795;28;20506;-74
2023/07/04 06:11:30;;;;;;;0.30;0.30;;;;;;;;;;5069447;28;20294;-73
2023/07/04 06:13:56;;;;;;;0.20;0.20;;;;;;;;;;5080558;28;20067;-74
2023/07/04 06:16:21;;;;;;;0.20;0.20;;;;;;;;;;5080051;28;20056;-76
2023/07/04 06:18:47;;;;;;;0.20;0.20;;;;;;;;;;5059135;28;20093;-76
2023/07/04 06:21:14;;;;;;;0.35;0.35;;;;;;;;;;5085052;28;20016;-77
2023/07/04 06:23:40;;;;;;;1.58;1.48;;;;;;;;;;5079742;28;20123;-77
2023/07/04 06:26:07;;;;;;;0.20;0.20;;;;;;;;;;5089074;28;20036;-76
2023/07/04 06:28:33;;;;;;;0.28;0.28;;;;;;;;;;5092516;28;20114;-77
2023/07/04 06:30:58;;;;;;;0.30;0.30;;;;;;;;;;5090014;28;20452;-75
2023/07/04 06:33:24;;;;;;;0.30;0.30;;;;;;;;;;5089910;28;20036;-75
2023/07/04 06:35:50;;;;;;;0.30;0.30;;;;;;;;;;5072988;28;20463;-77
2023/07/04 06:38:15;;;;;;;0.30;0.30;;;;;;;;;;5089655;28;20047;-77
2023/07/04 06:40:41;;;;;;;0.30;0.30;;;;;;;;;;5091337;28;20032;-76
2023/07/04 06:43:07;;;;;;;0.22;0.22;;;;;;;;;;5076143;28;20027;-76
2023/07/04 06:45:33;;;;;;;0.20;0.20;;;;;;;;;;5091680;28;20031;-76
2023/07/04 06:47:59;;;;;;;0.20;0.20;;;;;;;;;;5099116;28;20374;-76
2023/07/04 06:50:24;;;;;;;0.30;0.30;;;;;;;;;;5110566;28;20032;-76
2023/07/04 06:52:50;;;;;;;0.43;0.40;;;;;;;;;;5091023;28;20409;-76
2023/07/04 06:55:15;;;;;;;0.75;0.75;;;;;;;;;;5090811;28;20500;-76
2023/07/04 06:57:41;;;;;;;0.40;0.40;;;;;;;;;;5090457;28;20479;-77
2023/07/04 07:00:06;;;;;;;0.57;0.57;;;;;;;;;;5070694;28;20036;-76
2023/07/04 07:02:32;;;;;;;0.50;0.50;;;;;;;;;;5073054;28;20025;-76
2023/07/04 07:04:58;;;;;;;0.20;0.20;;;;;;;;;;5088747;28;20032;-75
2023/07/04 07:07:23;;;;;;;0.47;0.47;;;;;;;;;;5097960;28;20028;-76
2023/07/04 07:09:49;;;;;;;0.82;0.82;;;;;;;;;;5100268;28;20060;-76
2023/07/04 07:12:14;;;;;;;0.75;0.75;;;;;;;;;;5090026;28;20110;-78
2023/07/04 07:14:40;;;;;;;0.20;0.20;;;;;;;;;;5077936;28;20120;-75
2023/07/04 07:17:06;;;;;;;0.82;0.50;;;;;;;;;;5090766;28;20016;-76
2023/07/04 07:19:31;;;;;;;0.30;0.30;;;;;;;;;;5094233;28;20032;-76
2023/07/04 07:21:58;;;;;;;0.30;0.30;;;;;;;;;;5088829;28;20515;-76
2023/07/04 07:24:23;;;;;;;0.30;0.30;;;;;;;;;;5069285;28;20132;-76
2023/07/04 07:26:49;;;;;;;0.80;0.70;;;;;;;;;;5069012;28;20112;-76
2023/07/04 07:29:14;;;;;;;0.35;0.35;;;;;;;;;;5068931;28;20097;-76
2023/07/04 07:31:40;;;;;;;0.28;0.28;;;;;;;;;;5069004;28;20035;-76
2023/07/04 07:34:05;;;;;;;0.30;0.30;;;;;;;;;;5069356;28;20067;-75
2023/07/04 07:36:32;;;;;;;0.32;0.32;;;;;;;;;;5051319;28;20102;-69
2023/07/04 07:38:59;;;;;;;0.30;0.30;;;;;;;;;;5067932;28;20039;-70
2023/07/04 07:41:28;;;;;;;0.30;0.30;;;;;;;;;;5049812;28;20059;-68
2023/07/04 07:43:54;;;;;;;0.40;0.40;;;;;;;;;;5049640;28;20033;-68
2023/07/04 07:46:19;;;;;;;0.30;0.30;;;;;;;;;;5067307;28;20032;-69
2023/07/04 07:48:45;;;;;;;0.38;0.38;;;;;;;;;;5067741;28;20115;-69
2023/07/04 07:51:12;;;;;;;0.30;0.30;;;;;;;;;;5067773;28;20024;-68
2023/07/04 07:53:41;;;;;;;0.50;0.50;;;;;;;;;;5067248;28;20025;-68
2023/07/04 07:56:08;;;;;;;0.77;0.77;;;;;;;;;;5069060;28;20024;-69
2023/07/04 07:58:34;;;;;;;0.30;0.30;;;;;;;;;;5069167;28;20036;-68
2023/07/04 08:00:59;;;;;;;1.33;1.00;;;;;;;;;;5069135;28;20040;-69
2023/07/04 08:03:26;;;;;;;0.50;0.50;;;;;;;;;;5069130;28;20092;-70
2023/07/04 08:05:52;;;;;;;0.20;0.20;;;;;;;;;;5069190;28;20051;-68
2023/07/04 08:08:17;;;;;;;1.27;0.85;;;;;;;;;;5068786;28;20468;-70
2023/07/04 08:10:43;;;;;;;0.30;0.30;;;;;;;;;;5069283;28;20467;-69
2023/07/04 08:13:09;;;;;;;0.28;0.28;;;;;;;;;;5074894;28;20036;-69
2023/07/04 08:15:34;;;;;;;0.32;0.32;;;;;;;;;;5089562;28;20055;-71
2023/07/04 08:18:09;;;;;;;1.23;0.93;;;;;;;;;;5070686;28;20032;-69
2023/07/04 08:20:34;;;;;;;0.93;0.93;;;;;;;;;;5088858;28;20511;-69
2023/07/04 08:23:00;;;;;;;0.40;0.40;;;;;;;;;;5089297;28;20122;-70
2023/07/04 08:25:25;;;;;;;0.50;0.50;;;;;;;;;;5089234;28;20114;-70
2023/07/04 08:27:51;;;;;;;0.40;0.40;;;;;;;;;;5089908;28;20605;-70
2023/07/04 08:30:17;;;;;;;0.77;0.77;;;;;;;;;;5088771;28;20032;-69
2023/07/04 08:32:42;;;;;;;0.98;0.98;;;;;;;;;;5089233;28;20450;-72
2023/07/04 08:35:07;;;;;;;0.30;0.30;;;;;;;;;;5089037;28;20069;-71
2023/07/04 08:37:33;;;;;;;0.50;0.50;;;;;;;;;;5070900;28;20036;-70
2023/07/04 08:39:58;;;;;;;0.40;0.40;;;;;;;;;;5088932;28;20043;-71
2023/07/04 08:42:24;;;;;;;0.40;0.40;;;;;;;;;;5089451;28;20043;-70
2023/07/04 08:44:52;;;;;;;0.40;0.40;;;;;;;;;;5070755;28;20487;-69
2023/07/04 08:47:20;;;;;;;1.65;1.55;;;;;;;;;;5076361;28;20036;-69
2023/07/04 08:50:06;;;;;;;2.33;0.53;;;;;;;;;;5088554;28;20031;-69
2023/07/04 08:52:34;;;;;;;0.40;0.40;;;;;;;;;;5088237;28;20270;-70
2023/07/04 08:55:00;;;;;;;0.40;0.40;;;;;;;;;;5088487;28;20048;-70
2023/07/04 08:57:44;;;;;;;0.50;0.50;;;;;;;;;;5088277;28;20051;-69
2023/07/04 09:00:14;;;;;;;0.30;0.30;;;;;;;;;;5088197;28;20044;-70
2023/07/04 09:02:50;;;;;;;0.35;0.35;;;;;;;;;;5070512;28;20031;-69
2023/07/04 09:05:34;;;;;;;0.60;0.60;;;;;;;;;;5076573;28;20037;-70
2023/07/04 09:08:06;;;;;;;0.73;0.73;;;;;;;;;;5066608;28;20032;-70
2023/07/04 09:10:40;;;;;;;2.05;0.88;;;;;;;;;;5065692;28;20496;-70
2023/07/04 09:13:08;;;;;;;3.85;0.82;;;;;;;;;;5066504;28;20032;-71
2023/07/04 09:15:35;;;;;;;0.30;0.30;;;;;;;;;;5066309;28;20041;-71
2023/07/04 09:18:10;;;;;;;0.55;0.55;;;;;;;;;;5068816;28;20372;-70
2023/07/04 09:20:40;;;;;;;0.30;0.30;;;;;;;;;;5084977;28;20043;-70
2023/07/04 09:23:10;;;;;;;0.30;0.30;;;;;;;;;;5068636;28;20060;-71
2023/07/04 09:25:35;;;;;;;0.30;0.30;;;;;;;;;;5060133;28;20276;-69
2023/07/04 09:28:00;;;;;;;0.30;0.30;;;;;;;;;;5085724;28;20532;-69
2023/07/04 09:30:26;;;;;;;0.40;0.40;;;;;;;;;;5085170;28;20491;-69
2023/07/04 09:32:52;;;;;;;0.43;0.43;;;;;;;;;;5085534;28;20436;-71
2023/07/04 09:35:17;;;;;;;0.60;0.60;;;;;;;;;;5084986;28;20032;-71
2023/07/04 09:37:53;;;;;;;2.38;1.50;;;;;;;;;;5085690;28;20039;-71
2023/07/04 09:40:37;;;;;;;0.73;0.73;;;;;;;;;;5085586;28;20520;-70
2023/07/04 09:43:02;;;;;;;0.30;0.30;;;;;;;;;;5085333;28;20039;-70
2023/07/04 09:45:28;;;;;;;0.50;0.50;;;;;;;;;;5085656;28;20044;-69
2023/07/04 09:47:54;;;;;;;0.95;0.85;;;;;;;;;;5073341;28;20190;-70
2023/07/04 09:50:30;;;;;;;0.30;0.30;;;;;;;;;;5085965;28;20127;-70
2023/07/04 09:53:03;;;;;;;0.30;0.30;;;;;;;;;;5086203;28;20046;-69
2023/07/04 09:55:29;;;;;;;0.40;0.40;;;;;;;;;;5067339;28;20050;-69
2023/07/04 09:58:14;;;;;;;0.57;0.57;;;;;;;;;;5072585;28;20028;-69
2023/07/04 10:00:40;;;;;;;0.85;0.82;;;;;;;;;;5080892;28;20044;-70
2023/07/04 10:03:08;;;;;;;0.75;0.68;;;;;;;;;;5088647;28;20044;-70
2023/07/04 10:05:35;;;;;;;0.40;0.40;;;;;;;;;;5089764;28;20060;-69
2023/07/04 10:08:10;;;;;;;0.30;0.30;;;;;;;;;;5088698;28;20059;-69
2023/07/04 10:10:57;;;;;;;0.30;0.30;;;;;;;;;;5089017;28;20050;-69
2023/07/04 10:13:41;;;;;;;0.40;0.40;;;;;;;;;;5081525;28;20112;-69
2023/07/04 10:16:23;;;;;;;0.38;0.38;;;;;;;;;;5088334;28;20051;-68
2023/07/04 10:18:49;;;;;;;0.30;0.30;;;;;;;;;;5089051;28;20040;-69
2023/07/04 10:21:14;;;;;;;2.95;0.70;;;;;;;;;;5088145;28;20032;-70
2023/07/04 10:23:40;;;;;;;3.88;1.48;;;;;;;;;;5089678;28;20149;-73
2023/07/04 10:26:06;;;;;;;1.27;1.17;;;;;;;;;;5090856;28;20066;-70
2023/07/04 10:28:32;;;;;;;0.30;0.30;;;;;;;;;;5089161;28;20080;-70
2023/07/04 10:30:59;;;;;;;2.25;1.75;;;;;;;;;;5088569;28;20052;-70
2023/07/04 10:33:42;;;;;;;0.60;0.60;;;;;;;;;;5088247;28;20032;-69
2023/07/04 10:36:09;;;;;;;0.50;0.50;;;;;;;;;;5088545;28;20491;-70
2023/07/04 10:38:55;;;;;;;2.13;1.23;;;;;;;;;;5088823;28;20529;-69
2023/07/04 10:41:26;;;;;;;0.50;0.50;;;;;;;;;;5088565;28;20036;-69
2023/07/04 10:43:54;;;;;;;0.40;0.40;;;;;;;;;;5087794;28;20039;-69
2023/07/04 10:46:23;;;;;;;0.80;0.75;;;;;;;;;;5070204;28;20498;-69
2023/07/04 10:48:51;;;;;;;2.47;1.48;;;;;;;;;;5088755;28;20032;-70
2023/07/04 10:51:24;;;;;;;2.10;1.30;;;;;;;;;;5096772;28;20101;-70
2023/07/04 10:53:50;;;;;;;0.30;0.30;;;;;;;;;;5109587;28;20062;-69
2023/07/04 10:56:21;;;;;;;3.38;2.47;;;;;;;;;;5108322;28;20475;-70
2023/07/04 10:58:47;;;;;;;0.82;0.82;;;;;;;;;;5069233;28;20054;-70
2023/07/04 11:01:16;;;;;;;2.60;0.70;;;;;;;;;;5068260;28;20037;-71
2023/07/04 11:03:48;;;;;;;0.68;0.68;;;;;;;;;;5075219;28;20502;-71
2023/07/04 11:06:16;;;;;;;3.03;1.63;;;;;;;;;;5088614;28;20020;-72
2023/07/04 11:08:42;;;;;;;1.10;0.70;;;;;;;;;;5087932;28;20178;-69
2023/07/04 11:11:12;;;;;;;2.08;1.60;;;;;;;;;;5070251;28;20143;-69
2023/07/04 11:13:48;;;;;;;2.70;1.23;;;;;;;;;;5077950;28;20033;-70
2023/07/04 11:16:14;;;;;;;0.70;0.70;;;;;;;;;;5081124;28;20040;-72
2023/07/04 11:18:43;;;;;;;1.10;1.00;;;;;;;;;;5088230;28;20039;-69
2023/07/04 11:21:13;;;;;;;2.70;1.88;;;;;;;;;;5087644;28;20046;-70
2023/07/04 11:23:47;;;;;;;17.42;2.85;;;;;;;;;;5087601;28;20058;-71
2023/07/04 11:26:13;;;;;;;0.40;0.40;;;;;;;;;;5088351;28;20066;-69
2023/07/04 11:28:38;;;;;;;0.40;0.40;;;;;;;;;;5087814;28;20044;-69
2023/07/04 11:31:17;;;;;;;0.40;0.40;;;;;;;;;;5069495;28;20514;-70
2023/07/04 11:34:01;;;;;;;1.55;1.10;;;;;;;;;;5087354;28;20059;-69
2023/07/04 11:36:29;;;;;;;0.57;0.57;;;;;;;;;;5086904;28;20082;-69
2023/07/04 11:38:58;;;;;;;0.50;0.50;;;;;;;;;;5087596;28;20483;-68
2023/07/04 11:41:34;;;;;;;2.53;1.75;;;;;;;;;;5087966;28;20030;-69
2023/07/04 11:44:12;;;;;;;0.35;0.35;;;;;;;;;;5074114;28;20077;-69
2023/07/04 11:46:38;;;;;;;2.05;1.45;;;;;;;;;;5067444;28;20476;-69
2023/07/04 11:49:03;;;;;;;0.82;0.82;;;;;;;;;;5067170;28;20039;-71
2023/07/04 11:51:29;;;;;;;2.30;1.60;;;;;;;;;;5067124;28;20036;-70
2023/07/04 11:54:00;;;;;;;1.05;0.95;;;;;;;;;;5068054;28;20043;-69
2023/07/04 11:56:29;;;;;;;2.70;1.15;;;;;;;;;;5067047;28;20127;-70
2023/07/04 11:59:13;;;;;;;1.10;0.98;;;;;;;;;;5087412;28;20032;-70
2023/07/04 12:01:58;;;;;;;0.40;0.40;;;;;;;;;;5087510;28;20036;-70
2023/07/04 12:04:23;;;;;;;1.10;1.00;;;;;;;;;;5087064;28;20043;-70
2023/07/04 12:06:48;;;;;;;0.30;0.30;;;;;;;;;;5088446;28;20032;-71
2023/07/04 12:09:18;;;;;;;0.57;0.50;;;;;;;;;;5092070;28;20024;-69
2023/07/04 12:11:45;;;;;;;1.58;0.80;;;;;;;;;;5085753;28;20105;-70
2023/07/04 12:14:13;;;;;;;0.30;0.30;;;;;;;;;;5074733;28;20611;-70
2023/07/04 12:16:40;;;;;;;0.60;0.60;;;;;;;;;;5066607;28;20032;-70
2023/07/04 12:19:05;;;;;;;0.55;0.55;;;;;;;;;;5066957;28;20036;-71
2023/07/04 12:21:32;;;;;;;0.75;0.75;;;;;;;;;;5066522;28;20097;-69
2023/07/04 12:24:01;;;;;;;1.58;0.88;;;;;;;;;;5066765;28;20036;-70
2023/07/04 12:26:27;;;;;;;0.70;0.68;;;;;;;;;;5087187;28;20039;-70
2023/07/04 12:28:53;;;;;;;0.50;0.50;;;;;;;;;;5087086;28;20028;-71
2023/07/04 12:31:18;;;;;;;0.30;0.30;;;;;;;;;;5085875;28;20028;-72
2023/07/04 12:33:44;;;;;;;0.73;0.73;;;;;;;;;;5065256;28;20036;-69
2023/07/04 12:36:15;;;;;;;0.43;0.43;;;;;;;;;;5066752;28;20123;-71
2023/07/04 12:38:48;;;;;;;0.40;0.40;;;;;;;;;;5071226;28;20043;-69
2023/07/04 12:41:21;;;;;;;3.13;1.70;;;;;;;;;;5086714;28;20279;-71
2023/07/04 12:43:50;;;;;;;0.40;0.40;;;;;;;;;;5075346;28;20067;-69
2023/07/04 12:46:19;;;;;;;1.85;1.02;;;;;;;;;;5065942;28;20063;-70
2023/07/04 12:48:44;;;;;;;;;;;;;;;;;;5049259;28;20455;-70
2023/07/04 12:51:13;;;;;;;0.40;0.40;;;;;;;;;;5066601;28;19916;-73
2023/07/04 12:53:39;;;;;;;1.38;1.02;;;;;;;;;;5066712;28;20103;-70
2023/07/04 12:56:07;;;;;;;1.75;1.40;;;;;;;;;;5065813;28;20033;-70
2023/07/04 12:58:33;;;;;;;0.35;0.35;;;;;;;;;;5066188;28;20064;-69
2023/07/04 13:01:02;;;;;;;0.60;0.55;;;;;;;;;;5066190;28;20143;-72
2023/07/04 13:03:29;;;;;;;0.40;0.40;;;;;;;;;;5066539;28;20072;-69
2023/07/04 13:05:54;;;;;;;0.30;0.30;;;;;;;;;;5066417;28;20028;-69
2023/07/04 13:08:22;;;;;;;0.68;0.52;;;;;;;;;;5065822;28;20089;-70
2023/07/04 13:10:48;;;;;;;0.55;0.55;;;;;;;;;;5066326;28;20075;-71
2023/07/04 13:13:27;;;;;;;0.55;0.55;;;;;;;;;;5052826;28;20054;-70
2023/07/04 13:16:12;;;;;;;0.47;0.47;;;;;;;;;;5070332;28;20127;-72
2023/07/04 13:18:39;;;;;;;0.50;0.50;;;;;;;;;;5068473;28;20044;-73
2023/07/04 13:21:04;;;;;;;0.40;0.40;;;;;;;;;;5047426;28;20510;-73
2023/07/04 13:23:34;;;;;;;0.40;0.40;;;;;;;;;;5048068;28;20040;-73
2023/07/04 13:26:00;;;;;;;1.65;0.82;;;;;;;;;;5080561;28;20089;-74
2023/07/04 13:28:27;;;;;;;3.08;1.70;;;;;;;;;;5085779;28;20028;-73
2023/07/04 13:30:52;;;;;;;2.08;1.25;;;;;;;;;;5086321;28;20044;-73
2023/07/04 13:33:28;;;;;;;4.00;1.17;;;;;;;;;;5072454;28;20383;-73
2023/07/04 13:36:03;;;;;;;2.08;1.55;;;;;;;;;;5065666;28;20036;-74
2023/07/04 13:38:29;;;;;;;0.85;0.82;;;;;;;;;;5051188;28;20503;-74
2023/07/04 13:40:54;;;;;;;0.77;0.77;;;;;;;;;;5051508;28;20115;-74
2023/07/04 13:43:22;;;;;;;1.48;1.23;;;;;;;;;;5081832;28;20397;-73
2023/07/04 13:45:47;;;;;;;1.80;1.23;;;;;;;;;;5086884;28;20051;-72
2023/07/04 13:48:13;;;;;;;0.45;0.45;;;;;;;;;;5066758;28;20083;-73
2023/07/04 13:50:38;;;;;;;0.40;0.40;;;;;;;;;;5097003;28;20482;-73
2023/07/04 13:53:06;;;;;;;0.75;0.73;;;;;;;;;;5089668;28;20134;-71
2023/07/04 13:55:32;;;;;;;0.68;0.68;;;;;;;;;;5071183;28;20387;-72
2023/07/04 13:57:58;;;;;;;12.25;3.50;;;;;;;;;;5080511;28;20126;-71
2023/07/04 14:00:23;;;;;;;3.38;1.55;;;;;;;;;;5085224;28;20046;-72
2023/07/04 14:02:48;;;;;;;7.68;2.03;;;;;;;;;;5067810;28;20062;-71
2023/07/04 14:05:14;;;;;;;4.18;1.45;;;;;;;;;;5088920;28;20027;-72
2023/07/04 14:07:39;;;;;;;1.35;1.35;;;;;;;;;;5085281;28;20028;-72
2023/07/04 14:10:05;;;;;;;0.68;0.68;;;;;;;;;;5083569;28;20040;-72
2023/07/04 14:12:30;;;;;;;1.38;0.93;;;;;;;;;;5081961;28;20026;-70
2023/07/04 14:14:56;;;;;;;0.40;0.40;;;;;;;;;;5088751;28;20051;-72
2023/07/04 14:17:21;;;;;;;0.40;0.40;;;;;;;;;;5087468;28;20038;-72
2023/07/04 14:19:46;;;;;;;0.30;0.30;;;;;;;;;;5087418;28;20040;-71
2023/07/04 14:22:12;;;;;;;0.82;0.75;;;;;;;;;;5087041;28;20036;-73
2023/07/04 14:24:38;;;;;;;0.30;0.30;;;;;;;;;;5086494;28;20020;-72
2023/07/04 14:27:03;;;;;;;0.43;0.43;;;;;;;;;;5088310;28;20067;-71
2023/07/04 14:29:29;;;;;;;0.40;0.40;;;;;;;;;;5086397;28;20101;-71
2023/07/04 14:31:54;;;;;;;2.42;1.75;;;;;;;;;;5087004;28;20034;-70
2023/07/04 14:34:20;;;;;;;1.08;0.95;;;;;;;;;;5086450;28;20458;-72
2023/07/04 14:36:45;;;;;;;1.63;0.68;;;;;;;;;;5087277;28;20032;-73
2023/07/04 14:39:11;;;;;;;1.92;1.27;;;;;;;;;;5087148;28;20067;-72
2023/07/04 14:41:36;;;;;;;0.35;0.35;;;;;;;;;;5088539;28;20369;-70
2023/07/04 14:44:02;;;;;;;1.50;1.00;;;;;;;;;;5088869;28;20069;-70